sensor_id;sensor_type;location;lat;lon;timestamp;pressure;altitude;pressure_sealevel;temperature
71081;BMP180;58740;50.672;18.690;2022-08-19T00:02:17;98440.60;;;24.20
71081;BMP180;58740;50.672;18.690;2022-08-19T00:04:44;98437.40;;;24.20
71081;BMP180;58740;50.672;18.690;2022-08-19T00:07:15;98442.60;;;24.20
71081;BMP180;58740;50.672;18.690;2022-08-19T00:09:43;98438.00;;;24.20
71081;BMP180;58740;50.672;18.690;2022-08-19T00:12:12;98440.20;;;24.10
71081;BMP180;58740;50.672;18.690;2022-08-19T00:14:41;98441.20;;;24.10
71081;BMP180;58740;50.672;18.690;2022-08-19T00:17:09;98445.60;;;24.10
71081;BMP180;58740;50.672;18.690;2022-08-19T00:19:38;98443.20;;;24.10
71081;BMP180;58740;50.672;18.690;2022-08-19T00:22:06;98442.20;;;24.10
71081;BMP180;58740;50.672;18.690;2022-08-19T00:24:36;98437.60;;;24.10
71081;BMP180;58740;50.672;18.690;2022-08-19T00:27:05;98433.00;;;24.00
71081;BMP180;58740;50.672;18.690;2022-08-19T00:29:53;98432.00;;;24.00
71081;BMP180;58740;50.672;18.690;2022-08-19T00:32:22;98427.20;;;24.00
71081;BMP180;58740;50.672;18.690;2022-08-19T00:34:50;98423.00;;;24.00
71081;BMP180;58740;50.672;18.690;2022-08-19T00:37:23;98420.80;;;23.96
71081;BMP180;58740;50.672;18.690;2022-08-19T00:39:51;98417.40;;;23.90
71081;BMP180;58740;50.672;18.690;2022-08-19T00:42:20;98418.60;;;23.90
71081;BMP180;58740;50.672;18.690;2022-08-19T00:44:49;98413.80;;;23.90
71081;BMP180;58740;50.672;18.690;2022-08-19T00:47:17;98414.80;;;23.90
71081;BMP180;58740;50.672;18.690;2022-08-19T00:49:54;98411.40;;;23.90
71081;BMP180;58740;50.672;18.690;2022-08-19T00:52:32;98406.60;;;23.90
71081;BMP180;58740;50.672;18.690;2022-08-19T00:55:05;98403.00;;;23.90
71081;BMP180;58740;50.672;18.690;2022-08-19T00:57:44;98399.20;;;23.90
71081;BMP180;58740;50.672;18.690;2022-08-19T01:00:17;98398.60;;;23.90
71081;BMP180;58740;50.672;18.690;2022-08-19T01:02:45;98394.40;;;23.90
71081;BMP180;58740;50.672;18.690;2022-08-19T01:05:18;98392.20;;;23.80
71081;BMP180;58740;50.672;18.690;2022-08-19T01:07:50;98390.80;;;23.80
71081;BMP180;58740;50.672;18.690;2022-08-19T01:10:24;98389.20;;;23.76
71081;BMP180;58740;50.672;18.690;2022-08-19T01:12:55;98384.20;;;23.80
71081;BMP180;58740;50.672;18.690;2022-08-19T01:15:31;98379.80;;;23.76
71081;BMP180;58740;50.672;18.690;2022-08-19T01:18:05;98379.80;;;23.78
71081;BMP180;58740;50.672;18.690;2022-08-19T01:20:33;98381.20;;;23.70
71081;BMP180;58740;50.672;18.690;2022-08-19T01:23:03;98383.20;;;23.70
71081;BMP180;58740;50.672;18.690;2022-08-19T01:25:44;98378.40;;;23.66
71081;BMP180;58740;50.672;18.690;2022-08-19T01:28:24;98379.40;;;23.60
71081;BMP180;58740;50.672;18.690;2022-08-19T01:31:16;98378.40;;;23.60
71081;BMP180;58740;50.672;18.690;2022-08-19T01:33:56;98376.20;;;23.60
71081;BMP180;58740;50.672;18.690;2022-08-19T01:36:38;98370.00;;;23.56
71081;BMP180;58740;50.672;18.690;2022-08-19T01:39:13;98368.40;;;23.50
71081;BMP180;58740;50.672;18.690;2022-08-19T01:41:41;98368.20;;;23.50
71081;BMP180;58740;50.672;18.690;2022-08-19T01:44:09;98372.20;;;23.50
71081;BMP180;58740;50.672;18.690;2022-08-19T01:46:48;98370.80;;;23.50
71081;BMP180;58740;50.672;18.690;2022-08-19T01:49:20;98371.20;;;23.50
71081;BMP180;58740;50.672;18.690;2022-08-19T01:51:49;98367.40;;;23.50
71081;BMP180;58740;50.672;18.690;2022-08-19T01:54:20;98367.40;;;23.50
71081;BMP180;58740;50.672;18.690;2022-08-19T01:57:05;98369.00;;;23.50
71081;BMP180;58740;50.672;18.690;2022-08-19T01:59:34;98362.80;;;23.50
71081;BMP180;58740;50.672;18.690;2022-08-19T02:02:05;98361.20;;;23.50
71081;BMP180;58740;50.672;18.690;2022-08-19T02:04:37;98357.80;;;23.44
71081;BMP180;58740;50.672;18.690;2022-08-19T02:07:07;98347.20;;;23.40
71081;BMP180;58740;50.672;18.690;2022-08-19T02:09:35;98351.00;;;23.40
71081;BMP180;58740;50.672;18.690;2022-08-19T02:12:06;98342.80;;;23.40
71081;BMP180;58740;50.672;18.690;2022-08-19T02:14:36;98342.20;;;23.40
71081;BMP180;58740;50.672;18.690;2022-08-19T02:17:03;98339.80;;;23.40
71081;BMP180;58740;50.672;18.690;2022-08-19T02:19:32;98339.00;;;23.40
71081;BMP180;58740;50.672;18.690;2022-08-19T02:22:00;98338.00;;;23.40
71081;BMP180;58740;50.672;18.690;2022-08-19T02:24:28;98338.00;;;23.40
71081;BMP180;58740;50.672;18.690;2022-08-19T02:26:56;98332.00;;;23.40
71081;BMP180;58740;50.672;18.690;2022-08-19T02:29:24;98338.60;;;23.40
71081;BMP180;58740;50.672;18.690;2022-08-19T02:31:52;98336.40;;;23.40
71081;BMP180;58740;50.672;18.690;2022-08-19T02:34:20;98340.80;;;23.40
71081;BMP180;58740;50.672;18.690;2022-08-19T02:36:47;98341.80;;;23.40
71081;BMP180;58740;50.672;18.690;2022-08-19T02:39:18;98345.40;;;23.40
71081;BMP180;58740;50.672;18.690;2022-08-19T02:41:46;98341.60;;;23.38
71081;BMP180;58740;50.672;18.690;2022-08-19T02:44:14;98347.00;;;23.40
71081;BMP180;58740;50.672;18.690;2022-08-19T02:46:58;98349.20;;;23.40
71081;BMP180;58740;50.672;18.690;2022-08-19T02:49:25;98345.20;;;23.40
71081;BMP180;58740;50.672;18.690;2022-08-19T02:51:53;98343.80;;;23.40
71081;BMP180;58740;50.672;18.690;2022-08-19T02:54:21;98348.40;;;23.40
71081;BMP180;58740;50.672;18.690;2022-08-19T02:56:49;98347.40;;;23.30
71081;BMP180;58740;50.672;18.690;2022-08-19T02:59:20;98342.60;;;23.30
71081;BMP180;58740;50.672;18.690;2022-08-19T03:01:49;98345.60;;;23.22
71081;BMP180;58740;50.672;18.690;2022-08-19T03:04:18;98345.40;;;23.20
71081;BMP180;58740;50.672;18.690;2022-08-19T03:06:47;98348.00;;;23.20
71081;BMP180;58740;50.672;18.690;2022-08-19T03:09:18;98347.80;;;23.20
71081;BMP180;58740;50.672;18.690;2022-08-19T03:11:46;98343.60;;;23.20
71081;BMP180;58740;50.672;18.690;2022-08-19T03:14:19;98341.20;;;23.30
71081;BMP180;58740;50.672;18.690;2022-08-19T03:16:50;98339.20;;;23.22
71081;BMP180;58740;50.672;18.690;2022-08-19T03:19:19;98335.80;;;23.20
71081;BMP180;58740;50.672;18.690;2022-08-19T03:21:50;98340.40;;;23.20
71081;BMP180;58740;50.672;18.690;2022-08-19T03:24:19;98352.00;;;23.20
71081;BMP180;58740;50.672;18.690;2022-08-19T03:26:52;98345.80;;;23.20
71081;BMP180;58740;50.672;18.690;2022-08-19T03:29:26;98348.60;;;23.20
71081;BMP180;58740;50.672;18.690;2022-08-19T03:32:01;98346.40;;;23.20
71081;BMP180;58740;50.672;18.690;2022-08-19T03:34:34;98349.60;;;23.20
71081;BMP180;58740;50.672;18.690;2022-08-19T03:37:10;98352.80;;;23.20
71081;BMP180;58740;50.672;18.690;2022-08-19T03:39:41;98355.00;;;23.20
71081;BMP180;58740;50.672;18.690;2022-08-19T03:42:10;98357.20;;;23.20
71081;BMP180;58740;50.672;18.690;2022-08-19T03:44:58;98357.00;;;23.20
71081;BMP180;58740;50.672;18.690;2022-08-19T03:47:26;98354.20;;;23.20
71081;BMP180;58740;50.672;18.690;2022-08-19T03:49:54;98356.80;;;23.20
71081;BMP180;58740;50.672;18.690;2022-08-19T03:52:22;98367.60;;;23.20
71081;BMP180;58740;50.672;18.690;2022-08-19T03:54:49;98368.60;;;23.20
71081;BMP180;58740;50.672;18.690;2022-08-19T03:57:17;98374.00;;;23.20
71081;BMP180;58740;50.672;18.690;2022-08-19T03:59:44;98379.60;;;23.20
71081;BMP180;58740;50.672;18.690;2022-08-19T04:02:12;98376.20;;;23.20
71081;BMP180;58740;50.672;18.690;2022-08-19T04:04:43;98378.20;;;23.20
71081;BMP180;58740;50.672;18.690;2022-08-19T04:07:13;98375.20;;;23.20
71081;BMP180;58740;50.672;18.690;2022-08-19T04:09:43;98384.20;;;23.20
71081;BMP180;58740;50.672;18.690;2022-08-19T04:12:11;98384.20;;;23.20
71081;BMP180;58740;50.672;18.690;2022-08-19T04:14:39;98382.60;;;23.20
71081;BMP180;58740;50.672;18.690;2022-08-19T04:17:07;98387.40;;;23.20
71081;BMP180;58740;50.672;18.690;2022-08-19T04:19:35;98396.40;;;23.20
71081;BMP180;58740;50.672;18.690;2022-08-19T04:22:04;98400.20;;;23.20
71081;BMP180;58740;50.672;18.690;2022-08-19T04:24:34;98397.80;;;23.20
71081;BMP180;58740;50.672;18.690;2022-08-19T04:27:03;98395.80;;;23.20
71081;BMP180;58740;50.672;18.690;2022-08-19T04:29:31;98399.20;;;23.20
71081;BMP180;58740;50.672;18.690;2022-08-19T04:32:00;98402.00;;;23.20
71081;BMP180;58740;50.672;18.690;2022-08-19T04:34:37;98407.20;;;23.20
71081;BMP180;58740;50.672;18.690;2022-08-19T04:37:26;98408.40;;;23.20
71081;BMP180;58740;50.672;18.690;2022-08-19T04:40:06;98408.60;;;23.20
71081;BMP180;58740;50.672;18.690;2022-08-19T04:42:52;98408.60;;;23.20
71081;BMP180;58740;50.672;18.690;2022-08-19T04:45:21;98406.40;;;23.20
71081;BMP180;58740;50.672;18.690;2022-08-19T04:47:55;98411.40;;;23.20
71081;BMP180;58740;50.672;18.690;2022-08-19T04:50:46;98413.00;;;23.20
71081;BMP180;58740;50.672;18.690;2022-08-19T04:53:14;98414.60;;;23.20
71081;BMP180;58740;50.672;18.690;2022-08-19T04:55:42;98419.20;;;23.30
71081;BMP180;58740;50.672;18.690;2022-08-19T04:58:10;98418.40;;;23.30
71081;BMP180;58740;50.672;18.690;2022-08-19T05:00:39;98413.40;;;23.30
71081;BMP180;58740;50.672;18.690;2022-08-19T05:03:07;98416.80;;;23.30
71081;BMP180;58740;50.672;18.690;2022-08-19T05:05:41;98413.00;;;23.40
71081;BMP180;58740;50.672;18.690;2022-08-19T05:08:13;98410.60;;;23.40
71081;BMP180;58740;50.672;18.690;2022-08-19T05:10:58;98406.60;;;23.40
71081;BMP180;58740;50.672;18.690;2022-08-19T05:13:26;98408.00;;;23.50
71081;BMP180;58740;50.672;18.690;2022-08-19T05:15:57;98405.00;;;23.50
71081;BMP180;58740;50.672;18.690;2022-08-19T05:18:26;98411.60;;;23.60
71081;BMP180;58740;50.672;18.690;2022-08-19T05:21:17;98407.20;;;23.60
71081;BMP180;58740;50.672;18.690;2022-08-19T05:24:05;98404.40;;;23.70
71081;BMP180;58740;50.672;18.690;2022-08-19T05:26:43;98407.60;;;23.80
71081;BMP180;58740;50.672;18.690;2022-08-19T05:29:17;98404.40;;;23.80
71081;BMP180;58740;50.672;18.690;2022-08-19T05:31:48;98416.00;;;23.90
71081;BMP180;58740;50.672;18.690;2022-08-19T05:34:21;98415.80;;;23.90
71081;BMP180;58740;50.672;18.690;2022-08-19T05:36:59;98413.80;;;24.00
71081;BMP180;58740;50.672;18.690;2022-08-19T05:39:31;98417.40;;;24.00
71081;BMP180;58740;50.672;18.690;2022-08-19T05:42:12;98422.20;;;24.08
71081;BMP180;58740;50.672;18.690;2022-08-19T05:44:43;98431.00;;;24.10
71081;BMP180;58740;50.672;18.690;2022-08-19T05:47:13;98439.20;;;24.20
71081;BMP180;58740;50.672;18.690;2022-08-19T05:49:43;98427.80;;;24.24
71081;BMP180;58740;50.672;18.690;2022-08-19T05:52:15;98430.40;;;24.30
71081;BMP180;58740;50.672;18.690;2022-08-19T05:54:46;98429.60;;;24.36
71081;BMP180;58740;50.672;18.690;2022-08-19T05:57:18;98428.40;;;24.40
71081;BMP180;58740;50.672;18.690;2022-08-19T05:59:46;98426.00;;;24.40
71081;BMP180;58740;50.672;18.690;2022-08-19T06:02:19;98424.60;;;24.40
71081;BMP180;58740;50.672;18.690;2022-08-19T06:04:47;98427.60;;;24.46
71081;BMP180;58740;50.672;18.690;2022-08-19T06:07:15;98426.60;;;24.50
71081;BMP180;58740;50.672;18.690;2022-08-19T06:09:44;98427.20;;;24.50
71081;BMP180;58740;50.672;18.690;2022-08-19T06:12:29;98420.40;;;24.60
71081;BMP180;58740;50.672;18.690;2022-08-19T06:15:10;98425.20;;;24.70
71081;BMP180;58740;50.672;18.690;2022-08-19T06:17:39;98430.20;;;24.80
71081;BMP180;58740;50.672;18.690;2022-08-19T06:20:11;98440.80;;;24.84
71081;BMP180;58740;50.672;18.690;2022-08-19T06:22:44;98447.20;;;24.90
71081;BMP180;58740;50.672;18.690;2022-08-19T06:25:14;98453.80;;;24.90
71081;BMP180;58740;50.672;18.690;2022-08-19T06:27:43;98452.80;;;25.00
71081;BMP180;58740;50.672;18.690;2022-08-19T06:30:31;98458.40;;;25.10
71081;BMP180;58740;50.672;18.690;2022-08-19T06:32:59;98458.00;;;25.16
71081;BMP180;58740;50.672;18.690;2022-08-19T06:35:27;98452.60;;;25.20
71081;BMP180;58740;50.672;18.690;2022-08-19T06:37:56;98451.60;;;25.30
71081;BMP180;58740;50.672;18.690;2022-08-19T06:40:24;98458.00;;;25.40
71081;BMP180;58740;50.672;18.690;2022-08-19T06:42:54;98452.80;;;25.50
71081;BMP180;58740;50.672;18.690;2022-08-19T06:45:24;98461.60;;;25.56
71081;BMP180;58740;50.672;18.690;2022-08-19T06:48:06;98465.00;;;25.66
71081;BMP180;58740;50.672;18.690;2022-08-19T06:50:34;98469.60;;;25.80
71081;BMP180;58740;50.672;18.690;2022-08-19T06:53:06;98467.80;;;25.86
71081;BMP180;58740;50.672;18.690;2022-08-19T06:55:33;98471.60;;;25.90
71081;BMP180;58740;50.672;18.690;2022-08-19T06:58:04;98477.60;;;25.98
71081;BMP180;58740;50.672;18.690;2022-08-19T07:00:33;98475.60;;;26.00
71081;BMP180;58740;50.672;18.690;2022-08-19T07:03:01;98477.40;;;26.00
71081;BMP180;58740;50.672;18.690;2022-08-19T07:05:41;98481.80;;;26.02
71081;BMP180;58740;50.672;18.690;2022-08-19T07:08:13;98485.20;;;26.10
71081;BMP180;58740;50.672;18.690;2022-08-19T07:10:45;98477.80;;;26.10
71081;BMP180;58740;50.672;18.690;2022-08-19T07:13:13;98478.20;;;26.20
71081;BMP180;58740;50.672;18.690;2022-08-19T07:15:41;98475.20;;;26.20
71081;BMP180;58740;50.672;18.690;2022-08-19T07:18:09;98483.60;;;26.30
71081;BMP180;58740;50.672;18.690;2022-08-19T07:20:40;98490.00;;;26.40
71081;BMP180;58740;50.672;18.690;2022-08-19T07:23:10;98489.00;;;26.50
71081;BMP180;58740;50.672;18.690;2022-08-19T07:25:43;98487.00;;;26.60
71081;BMP180;58740;50.672;18.690;2022-08-19T07:28:19;98500.00;;;26.70
71081;BMP180;58740;50.672;18.690;2022-08-19T07:30:52;98498.20;;;26.80
71081;BMP180;58740;50.672;18.690;2022-08-19T07:33:20;98498.20;;;26.90
71081;BMP180;58740;50.672;18.690;2022-08-19T07:35:48;98497.00;;;26.92
71081;BMP180;58740;50.672;18.690;2022-08-19T07:38:17;98497.00;;;27.06
71081;BMP180;58740;50.672;18.690;2022-08-19T07:40:45;98496.00;;;27.18
71081;BMP180;58740;50.672;18.690;2022-08-19T07:43:13;98494.40;;;27.30
71081;BMP180;58740;50.672;18.690;2022-08-19T07:45:44;98499.80;;;27.40
71081;BMP180;58740;50.672;18.690;2022-08-19T07:48:12;98505.80;;;27.48
71081;BMP180;58740;50.672;18.690;2022-08-19T07:50:42;98501.80;;;27.54
71081;BMP180;58740;50.672;18.690;2022-08-19T07:53:10;98501.80;;;27.60
71081;BMP180;58740;50.672;18.690;2022-08-19T07:55:39;98500.40;;;27.70
71081;BMP180;58740;50.672;18.690;2022-08-19T07:58:14;98505.80;;;27.76
71081;BMP180;58740;50.672;18.690;2022-08-19T08:00:45;98505.40;;;27.90
71081;BMP180;58740;50.672;18.690;2022-08-19T08:03:17;98509.80;;;28.00
71081;BMP180;58740;50.672;18.690;2022-08-19T08:05:46;98506.20;;;28.10
71081;BMP180;58740;50.672;18.690;2022-08-19T08:08:33;98506.60;;;28.10
71081;BMP180;58740;50.672;18.690;2022-08-19T08:11:20;98506.60;;;28.20
71081;BMP180;58740;50.672;18.690;2022-08-19T08:13:50;98510.00;;;28.30
71081;BMP180;58740;50.672;18.690;2022-08-19T08:16:40;98507.00;;;28.30
71081;BMP180;58740;50.672;18.690;2022-08-19T08:19:14;98513.40;;;28.34
71081;BMP180;58740;50.672;18.690;2022-08-19T08:21:58;98508.80;;;28.36
71081;BMP180;58740;50.672;18.690;2022-08-19T08:24:29;98511.40;;;28.40
71081;BMP180;58740;50.672;18.690;2022-08-19T08:27:00;98512.80;;;28.40
71081;BMP180;58740;50.672;18.690;2022-08-19T08:29:29;98505.00;;;28.50
71081;BMP180;58740;50.672;18.690;2022-08-19T08:32:02;98510.40;;;28.60
71081;BMP180;58740;50.672;18.690;2022-08-19T08:34:41;98502.60;;;28.70
71081;BMP180;58740;50.672;18.690;2022-08-19T08:37:09;98504.20;;;28.74
71081;BMP180;58740;50.672;18.690;2022-08-19T08:39:37;98504.40;;;28.80
71081;BMP180;58740;50.672;18.690;2022-08-19T08:45:01;98503.20;;;28.80
71081;BMP180;58740;50.672;18.690;2022-08-19T08:47:40;98505.80;;;28.80
71081;BMP180;58740;50.672;18.690;2022-08-19T08:50:20;98495.60;;;28.80
71081;BMP180;58740;50.672;18.690;2022-08-19T08:52:56;98498.80;;;28.82
71081;BMP180;58740;50.672;18.690;2022-08-19T08:55:28;98491.60;;;28.90
71081;BMP180;58740;50.672;18.690;2022-08-19T08:58:11;98489.60;;;29.02
71081;BMP180;58740;50.672;18.690;2022-08-19T09:00:47;98492.20;;;29.16
71081;BMP180;58740;50.672;18.690;2022-08-19T09:03:23;98488.60;;;29.20
71081;BMP180;58740;50.672;18.690;2022-08-19T09:06:06;98490.00;;;29.30
71081;BMP180;58740;50.672;18.690;2022-08-19T09:09:13;98499.00;;;29.30
71081;BMP180;58740;50.672;18.690;2022-08-19T09:15:07;98497.20;;;29.30
71081;BMP180;58740;50.672;18.690;2022-08-19T09:17:36;98493.40;;;29.40
71081;BMP180;58740;50.672;18.690;2022-08-19T09:20:19;98492.80;;;29.48
71081;BMP180;58740;50.672;18.690;2022-08-19T09:22:47;98488.00;;;29.60
71081;BMP180;58740;50.672;18.690;2022-08-19T09:25:21;98493.00;;;29.70
71081;BMP180;58740;50.672;18.690;2022-08-19T09:27:56;98490.60;;;29.80
71081;BMP180;58740;50.672;18.690;2022-08-19T09:30:40;98491.60;;;29.90
71081;BMP180;58740;50.672;18.690;2022-08-19T09:33:08;98489.20;;;29.98
71081;BMP180;58740;50.672;18.690;2022-08-19T09:35:36;98492.80;;;30.00
71081;BMP180;58740;50.672;18.690;2022-08-19T09:38:21;98495.40;;;30.00
71081;BMP180;58740;50.672;18.690;2022-08-19T09:40:48;98496.60;;;30.00
71081;BMP180;58740;50.672;18.690;2022-08-19T09:43:17;98496.20;;;30.00
71081;BMP180;58740;50.672;18.690;2022-08-19T09:46:07;98493.00;;;30.00
71081;BMP180;58740;50.672;18.690;2022-08-19T09:48:38;98496.00;;;30.00
71081;BMP180;58740;50.672;18.690;2022-08-19T09:51:10;98499.20;;;30.00
71081;BMP180;58740;50.672;18.690;2022-08-19T09:53:39;98486.80;;;30.00
71081;BMP180;58740;50.672;18.690;2022-08-19T09:56:07;98489.60;;;30.00
71081;BMP180;58740;50.672;18.690;2022-08-19T09:58:37;98494.60;;;29.90
71081;BMP180;58740;50.672;18.690;2022-08-19T10:01:07;98503.80;;;29.90
71081;BMP180;58740;50.672;18.690;2022-08-19T10:03:36;98500.20;;;29.90
71081;BMP180;58740;50.672;18.690;2022-08-19T10:06:05;98502.40;;;29.90
71081;BMP180;58740;50.672;18.690;2022-08-19T10:08:45;98504.40;;;29.80
71081;BMP180;58740;50.672;18.690;2022-08-19T10:11:19;98506.40;;;29.80
71081;BMP180;58740;50.672;18.690;2022-08-19T10:14:04;98502.20;;;29.80
71081;BMP180;58740;50.672;18.690;2022-08-19T10:16:36;98511.00;;;29.80
71081;BMP180;58740;50.672;18.690;2022-08-19T10:19:06;98509.00;;;29.84
71081;BMP180;58740;50.672;18.690;2022-08-19T10:21:34;98501.00;;;29.80
71081;BMP180;58740;50.672;18.690;2022-08-19T10:24:04;98501.00;;;29.82
71081;BMP180;58740;50.672;18.690;2022-08-19T10:26:37;98500.20;;;29.90
71081;BMP180;58740;50.672;18.690;2022-08-19T10:29:05;98500.60;;;29.90
71081;BMP180;58740;50.672;18.690;2022-08-19T10:31:35;98498.20;;;29.90
71081;BMP180;58740;50.672;18.690;2022-08-19T10:34:25;98500.80;;;29.98
71081;BMP180;58740;50.672;18.690;2022-08-19T10:36:57;98494.00;;;30.00
71081;BMP180;58740;50.672;18.690;2022-08-19T10:39:31;98498.80;;;30.00
71081;BMP180;58740;50.672;18.690;2022-08-19T10:42:10;98498.00;;;30.00
71081;BMP180;58740;50.672;18.690;2022-08-19T10:44:41;98495.60;;;30.02
71081;BMP180;58740;50.672;18.690;2022-08-19T10:47:10;98497.60;;;30.04
71081;BMP180;58740;50.672;18.690;2022-08-19T10:49:55;98493.00;;;30.10
71081;BMP180;58740;50.672;18.690;2022-08-19T10:52:47;98491.40;;;30.10
71081;BMP180;58740;50.672;18.690;2022-08-19T10:55:21;98492.40;;;30.10
71081;BMP180;58740;50.672;18.690;2022-08-19T10:58:14;98485.80;;;30.10
71081;BMP180;58740;50.672;18.690;2022-08-19T11:00:43;98480.40;;;30.10
71081;BMP180;58740;50.672;18.690;2022-08-19T11:03:18;98475.00;;;30.20
71081;BMP180;58740;50.672;18.690;2022-08-19T11:05:46;98474.80;;;30.20
71081;BMP180;58740;50.672;18.690;2022-08-19T11:08:14;98478.20;;;30.20
71081;BMP180;58740;50.672;18.690;2022-08-19T11:10:52;98479.40;;;30.30
71081;BMP180;58740;50.672;18.690;2022-08-19T11:13:22;98469.40;;;30.30
71081;BMP180;58740;50.672;18.690;2022-08-19T11:16:07;98468.20;;;30.30
71081;BMP180;58740;50.672;18.690;2022-08-19T11:18:42;98469.60;;;30.40
71081;BMP180;58740;50.672;18.690;2022-08-19T11:23:50;98481.60;;;30.60
71081;BMP180;58740;50.672;18.690;2022-08-19T11:26:21;98479.60;;;30.60
71081;BMP180;58740;50.672;18.690;2022-08-19T11:28:49;98482.60;;;30.60
71081;BMP180;58740;50.672;18.690;2022-08-19T11:31:25;98478.80;;;30.60
71081;BMP180;58740;50.672;18.690;2022-08-19T11:33:58;98474.40;;;30.70
71081;BMP180;58740;50.672;18.690;2022-08-19T11:36:28;98469.80;;;30.70
71081;BMP180;58740;50.672;18.690;2022-08-19T11:38:56;98464.40;;;30.70
71081;BMP180;58740;50.672;18.690;2022-08-19T11:41:24;98460.20;;;30.70
71081;BMP180;58740;50.672;18.690;2022-08-19T11:43:54;98460.80;;;30.80
71081;BMP180;58740;50.672;18.690;2022-08-19T11:46:25;98456.00;;;30.80
71081;BMP180;58740;50.672;18.690;2022-08-19T11:48:53;98459.60;;;30.90
71081;BMP180;58740;50.672;18.690;2022-08-19T11:51:24;98460.80;;;31.00
71081;BMP180;58740;50.672;18.690;2022-08-19T11:53:55;98471.80;;;31.10
71081;BMP180;58740;50.672;18.690;2022-08-19T11:56:24;98480.60;;;31.10
71081;BMP180;58740;50.672;18.690;2022-08-19T11:58:54;98483.60;;;31.10
71081;BMP180;58740;50.672;18.690;2022-08-19T12:01:26;98478.00;;;31.10
71081;BMP180;58740;50.672;18.690;2022-08-19T12:03:56;98475.20;;;31.00
71081;BMP180;58740;50.672;18.690;2022-08-19T12:06:30;98471.80;;;31.00
71081;BMP180;58740;50.672;18.690;2022-08-19T12:09:04;98470.00;;;31.00
71081;BMP180;58740;50.672;18.690;2022-08-19T12:11:33;98468.00;;;30.92
71081;BMP180;58740;50.672;18.690;2022-08-19T12:14:01;98462.40;;;30.90
71081;BMP180;58740;50.672;18.690;2022-08-19T12:16:30;98470.40;;;30.90
71081;BMP180;58740;50.672;18.690;2022-08-19T12:19:01;98468.20;;;30.90
71081;BMP180;58740;50.672;18.690;2022-08-19T12:21:34;98467.20;;;30.82
71081;BMP180;58740;50.672;18.690;2022-08-19T12:24:06;98468.60;;;30.80
71081;BMP180;58740;50.672;18.690;2022-08-19T12:26:35;98468.40;;;30.80
71081;BMP180;58740;50.672;18.690;2022-08-19T12:29:21;98466.00;;;30.70
71081;BMP180;58740;50.672;18.690;2022-08-19T12:31:51;98466.60;;;30.70
71081;BMP180;58740;50.672;18.690;2022-08-19T12:34:19;98468.80;;;30.70
71081;BMP180;58740;50.672;18.690;2022-08-19T12:36:48;98469.20;;;30.60
71081;BMP180;58740;50.672;18.690;2022-08-19T12:39:17;98459.40;;;30.60
71081;BMP180;58740;50.672;18.690;2022-08-19T12:41:45;98459.40;;;30.60
71081;BMP180;58740;50.672;18.690;2022-08-19T12:44:22;98462.80;;;30.60
71081;BMP180;58740;50.672;18.690;2022-08-19T12:46:59;98461.60;;;30.60
71081;BMP180;58740;50.672;18.690;2022-08-19T12:49:29;98458.40;;;30.60
71081;BMP180;58740;50.672;18.690;2022-08-19T12:52:16;98460.00;;;30.60
71081;BMP180;58740;50.672;18.690;2022-08-19T12:54:52;98460.40;;;30.58
71081;BMP180;58740;50.672;18.690;2022-08-19T12:57:25;98459.40;;;30.60
71081;BMP180;58740;50.672;18.690;2022-08-19T13:00:16;98458.00;;;30.60
71081;BMP180;58740;50.672;18.690;2022-08-19T13:02:47;98459.00;;;30.60
71081;BMP180;58740;50.672;18.690;2022-08-19T13:05:21;98464.60;;;30.60
71081;BMP180;58740;50.672;18.690;2022-08-19T13:07:53;98463.40;;;30.60
71081;BMP180;58740;50.672;18.690;2022-08-19T13:10:29;98463.00;;;30.68
71081;BMP180;58740;50.672;18.690;2022-08-19T13:12:57;98461.20;;;30.70
71081;BMP180;58740;50.672;18.690;2022-08-19T13:15:27;98458.40;;;30.70
71081;BMP180;58740;50.672;18.690;2022-08-19T13:17:57;98457.60;;;30.70
71081;BMP180;58740;50.672;18.690;2022-08-19T13:20:25;98456.40;;;30.70
71081;BMP180;58740;50.672;18.690;2022-08-19T13:22:54;98457.80;;;30.70
71081;BMP180;58740;50.672;18.690;2022-08-19T13:25:23;98465.40;;;30.70
71081;BMP180;58740;50.672;18.690;2022-08-19T13:27:51;98458.60;;;30.70
71081;BMP180;58740;50.672;18.690;2022-08-19T13:30:20;98462.20;;;30.74
71081;BMP180;58740;50.672;18.690;2022-08-19T13:33:08;98455.00;;;30.80
71081;BMP180;58740;50.672;18.690;2022-08-19T13:35:48;98454.00;;;30.80
71081;BMP180;58740;50.672;18.690;2022-08-19T13:38:20;98459.20;;;30.80
71081;BMP180;58740;50.672;18.690;2022-08-19T13:40:52;98456.40;;;30.80
71081;BMP180;58740;50.672;18.690;2022-08-19T13:43:25;98454.20;;;30.80
71081;BMP180;58740;50.672;18.690;2022-08-19T13:45:54;98457.00;;;30.80
71081;BMP180;58740;50.672;18.690;2022-08-19T13:48:26;98456.40;;;30.80
71081;BMP180;58740;50.672;18.690;2022-08-19T13:50:54;98450.00;;;30.80
71081;BMP180;58740;50.672;18.690;2022-08-19T13:53:22;98450.00;;;30.84
71081;BMP180;58740;50.672;18.690;2022-08-19T13:55:51;98448.20;;;30.90
71081;BMP180;58740;50.672;18.690;2022-08-19T13:58:21;98453.80;;;30.90
71081;BMP180;58740;50.672;18.690;2022-08-19T14:00:50;98448.40;;;30.90
71081;BMP180;58740;50.672;18.690;2022-08-19T14:03:18;98451.00;;;30.90
71081;BMP180;58740;50.672;18.690;2022-08-19T14:05:46;98447.60;;;30.94
71081;BMP180;58740;50.672;18.690;2022-08-19T14:08:14;98443.60;;;31.00
71081;BMP180;58740;50.672;18.690;2022-08-19T14:10:43;98440.20;;;31.00
71081;BMP180;58740;50.672;18.690;2022-08-19T14:13:20;98443.20;;;31.00
71081;BMP180;58740;50.672;18.690;2022-08-19T14:15:49;98444.40;;;31.00
71081;BMP180;58740;50.672;18.690;2022-08-19T14:18:18;98440.20;;;31.02
71081;BMP180;58740;50.672;18.690;2022-08-19T14:20:46;98436.80;;;31.10
71081;BMP180;58740;50.672;18.690;2022-08-19T14:23:14;98436.80;;;31.10
71081;BMP180;58740;50.672;18.690;2022-08-19T14:25:42;98432.20;;;31.10
71081;BMP180;58740;50.672;18.690;2022-08-19T14:28:10;98432.20;;;31.10
71081;BMP180;58740;50.672;18.690;2022-08-19T14:30:38;98435.00;;;31.10
71081;BMP180;58740;50.672;18.690;2022-08-19T14:33:06;98439.20;;;31.08
71081;BMP180;58740;50.672;18.690;2022-08-19T14:35:37;98433.40;;;31.04